sensor_id;sensor_type;location;lat;lon;timestamp;P1;durP1;ratioP1;P2;durP2;ratioP2
21731;SDS011;11028;51.156;17.130;2024-03-02T00:03:05;106.45;;;50.78;;
21731;SDS011;11028;51.156;17.130;2024-03-02T00:10:27;118.63;;;53.88;;
21731;SDS011;11028;51.156;17.130;2024-03-02T00:17:51;115.22;;;54.80;;
21731;SDS011;11028;51.156;17.130;2024-03-02T00:25:12;122.60;;;55.70;;
21731;SDS011;11028;51.156;17.130;2024-03-02T00:42:05;113.88;;;52.63;;
21731;SDS011;11028;51.156;17.130;2024-03-02T00:49:23;115.68;;;54.53;;
21731;SDS011;11028;51.156;17.130;2024-03-02T00:56:43;118.05;;;55.25;;
21731;SDS011;11028;51.156;17.130;2024-03-02T01:04:03;121.82;;;54.88;;
21731;SDS011;11028;51.156;17.130;2024-03-02T01:11:21;121.32;;;55.50;;
21731;SDS011;11028;51.156;17.130;2024-03-02T01:18:40;127.70;;;56.63;;
21731;SDS011;11028;51.156;17.130;2024-03-02T01:26:00;111.97;;;53.35;;
21731;SDS011;11028;51.156;17.130;2024-03-02T01:42:42;122.10;;;54.08;;
21731;SDS011;11028;51.156;17.130;2024-03-02T01:50:01;118.57;;;53.90;;
21731;SDS011;11028;51.156;17.130;2024-03-02T01:57:20;122.78;;;56.40;;
21731;SDS011;11028;51.156;17.130;2024-03-02T02:04:40;119.75;;;56.55;;
21731;SDS011;11028;51.156;17.130;2024-03-02T02:11:58;124.93;;;55.17;;
21731;SDS011;11028;51.156;17.130;2024-03-02T02:19:17;116.88;;;54.03;;
21731;SDS011;11028;51.156;17.130;2024-03-02T02:26:36;127.90;;;54.90;;
21731;SDS011;11028;51.156;17.130;2024-03-02T02:43:29;115.45;;;52.65;;
21731;SDS011;11028;51.156;17.130;2024-03-02T02:50:47;119.55;;;53.90;;
21731;SDS011;11028;51.156;17.130;2024-03-02T02:58:06;117.57;;;54.10;;
21731;SDS011;11028;51.156;17.130;2024-03-02T03:05:25;111.55;;;53.10;;
21731;SDS011;11028;51.156;17.130;2024-03-02T03:12:44;125.55;;;56.55;;
21731;SDS011;11028;51.156;17.130;2024-03-02T03:20:03;120.78;;;55.03;;
21731;SDS011;11028;51.156;17.130;2024-03-02T03:27:28;119.40;;;53.05;;
21731;SDS011;11028;51.156;17.130;2024-03-02T03:34:46;119.95;;;52.80;;
21731;SDS011;11028;51.156;17.130;2024-03-02T03:42:05;109.30;;;51.50;;
21731;SDS011;11028;51.156;17.130;2024-03-02T03:49:25;112.63;;;49.30;;
21731;SDS011;11028;51.156;17.130;2024-03-02T03:56:43;110.78;;;50.15;;
21731;SDS011;11028;51.156;17.130;2024-03-02T04:04:02;101.32;;;49.35;;
21731;SDS011;11028;51.156;17.130;2024-03-02T04:11:22;104.35;;;46.53;;
21731;SDS011;11028;51.156;17.130;2024-03-02T04:18:40;104.63;;;48.45;;
21731;SDS011;11028;51.156;17.130;2024-03-02T04:25:59;105.47;;;49.03;;
21731;SDS011;11028;51.156;17.130;2024-03-02T04:33:19;100.88;;;46.75;;
21731;SDS011;11028;51.156;17.130;2024-03-02T04:40:38;94.32;;;46.67;;
21731;SDS011;11028;51.156;17.130;2024-03-02T04:47:56;97.50;;;45.35;;
21731;SDS011;11028;51.156;17.130;2024-03-02T04:55:17;99.53;;;45.58;;
21731;SDS011;11028;51.156;17.130;2024-03-02T05:02:52;100.88;;;47.10;;
21731;SDS011;11028;51.156;17.130;2024-03-02T05:10:10;100.38;;;47.50;;
21731;SDS011;11028;51.156;17.130;2024-03-02T05:17:30;100.75;;;46.00;;
21731;SDS011;11028;51.156;17.130;2024-03-02T05:24:48;101.35;;;47.05;;
21731;SDS011;11028;51.156;17.130;2024-03-02T05:32:07;102.22;;;47.13;;
21731;SDS011;11028;51.156;17.130;2024-03-02T05:39:27;101.15;;;45.13;;
21731;SDS011;11028;51.156;17.130;2024-03-02T05:46:45;95.13;;;46.42;;
21731;SDS011;11028;51.156;17.130;2024-03-02T05:54:03;97.15;;;46.40;;
21731;SDS011;11028;51.156;17.130;2024-03-02T06:01:23;100.07;;;46.20;;
21731;SDS011;11028;51.156;17.130;2024-03-02T06:16:03;103.68;;;48.15;;
21731;SDS011;11028;51.156;17.130;2024-03-02T06:23:23;107.00;;;47.97;;
21731;SDS011;11028;51.156;17.130;2024-03-02T06:30:42;105.97;;;47.40;;
21731;SDS011;11028;51.156;17.130;2024-03-02T06:38:00;108.22;;;48.08;;
21731;SDS011;11028;51.156;17.130;2024-03-02T06:45:20;103.30;;;47.78;;
21731;SDS011;11028;51.156;17.130;2024-03-02T06:52:38;93.78;;;46.95;;
21731;SDS011;11028;51.156;17.130;2024-03-02T06:59:57;98.63;;;46.42;;
21731;SDS011;11028;51.156;17.130;2024-03-02T07:07:17;102.82;;;46.58;;
21731;SDS011;11028;51.156;17.130;2024-03-02T07:14:36;98.28;;;47.90;;
21731;SDS011;11028;51.156;17.130;2024-03-02T07:22:29;98.80;;;47.80;;
21731;SDS011;11028;51.156;17.130;2024-03-02T07:29:47;98.03;;;45.63;;
21731;SDS011;11028;51.156;17.130;2024-03-02T07:37:06;83.75;;;44.28;;
21731;SDS011;11028;51.156;17.130;2024-03-02T07:44:25;81.38;;;41.00;;
21731;SDS011;11028;51.156;17.130;2024-03-02T07:51:44;82.53;;;41.70;;
21731;SDS011;11028;51.156;17.130;2024-03-02T07:59:03;81.47;;;41.30;;
21731;SDS011;11028;51.156;17.130;2024-03-02T08:06:23;74.03;;;37.30;;
21731;SDS011;11028;51.156;17.130;2024-03-02T08:13:44;73.20;;;38.90;;
21731;SDS011;11028;51.156;17.130;2024-03-02T08:21:02;78.25;;;37.13;;
21731;SDS011;11028;51.156;17.130;2024-03-02T08:28:22;69.55;;;35.83;;
21731;SDS011;11028;51.156;17.130;2024-03-02T08:35:41;67.30;;;35.90;;
21731;SDS011;11028;51.156;17.130;2024-03-02T08:42:59;64.90;;;33.92;;
21731;SDS011;11028;51.156;17.130;2024-03-02T08:50:19;58.80;;;32.30;;
21731;SDS011;11028;51.156;17.130;2024-03-02T08:57:37;56.67;;;30.55;;
21731;SDS011;11028;51.156;17.130;2024-03-02T09:04:56;57.40;;;31.58;;
21731;SDS011;11028;51.156;17.130;2024-03-02T09:12:16;56.20;;;30.85;;
21731;SDS011;11028;51.156;17.130;2024-03-02T09:19:34;54.67;;;31.83;;
21731;SDS011;11028;51.156;17.130;2024-03-02T09:26:53;53.15;;;29.98;;
21731;SDS011;11028;51.156;17.130;2024-03-02T09:34:13;50.72;;;28.10;;
21731;SDS011;11028;51.156;17.130;2024-03-02T09:41:32;46.80;;;26.67;;
21731;SDS011;11028;51.156;17.130;2024-03-02T09:48:51;54.33;;;27.48;;
21731;SDS011;11028;51.156;17.130;2024-03-02T09:56:11;52.67;;;26.77;;
21731;SDS011;11028;51.156;17.130;2024-03-02T10:03:29;50.65;;;27.40;;
21731;SDS011;11028;51.156;17.130;2024-03-02T10:10:49;47.30;;;27.00;;
21731;SDS011;11028;51.156;17.130;2024-03-02T10:18:10;47.15;;;25.83;;
21731;SDS011;11028;51.156;17.130;2024-03-02T10:25:29;46.65;;;25.48;;
21731;SDS011;11028;51.156;17.130;2024-03-02T10:33:06;40.72;;;23.13;;
21731;SDS011;11028;51.156;17.130;2024-03-02T10:40:26;42.20;;;23.70;;
21731;SDS011;11028;51.156;17.130;2024-03-02T10:47:45;40.20;;;24.30;;
21731;SDS011;11028;51.156;17.130;2024-03-02T10:55:05;42.67;;;24.83;;
21731;SDS011;11028;51.156;17.130;2024-03-02T11:02:27;42.38;;;22.67;;
21731;SDS011;11028;51.156;17.130;2024-03-02T11:09:49;45.28;;;24.80;;
21731;SDS011;11028;51.156;17.130;2024-03-02T11:17:11;42.53;;;23.30;;
21731;SDS011;11028;51.156;17.130;2024-03-02T11:24:33;42.05;;;22.27;;
21731;SDS011;11028;51.156;17.130;2024-03-02T11:31:57;40.70;;;22.23;;
21731;SDS011;11028;51.156;17.130;2024-03-02T11:39:17;39.20;;;22.23;;
21731;SDS011;11028;51.156;17.130;2024-03-02T11:46:38;34.67;;;20.60;;
21731;SDS011;11028;51.156;17.130;2024-03-02T11:53:57;33.55;;;19.25;;
21731;SDS011;11028;51.156;17.130;2024-03-02T12:01:17;32.05;;;17.63;;
21731;SDS011;11028;51.156;17.130;2024-03-02T12:08:38;33.17;;;18.17;;
21731;SDS011;11028;51.156;17.130;2024-03-02T12:15:57;32.03;;;16.00;;
21731;SDS011;11028;51.156;17.130;2024-03-02T12:23:16;31.60;;;16.60;;
21731;SDS011;11028;51.156;17.130;2024-03-02T12:30:35;27.05;;;16.17;;
21731;SDS011;11028;51.156;17.130;2024-03-02T12:37:54;30.48;;;16.85;;
21731;SDS011;11028;51.156;17.130;2024-03-02T12:45:12;33.80;;;17.67;;
21731;SDS011;11028;51.156;17.130;2024-03-02T12:52:33;28.33;;;15.95;;
21731;SDS011;11028;51.156;17.130;2024-03-02T12:59:52;28.95;;;17.42;;
21731;SDS011;11028;51.156;17.130;2024-03-02T13:07:10;30.75;;;16.92;;
21731;SDS011;11028;51.156;17.130;2024-03-02T13:14:33;30.48;;;16.27;;
21731;SDS011;11028;51.156;17.130;2024-03-02T13:21:51;26.52;;;15.90;;
21731;SDS011;11028;51.156;17.130;2024-03-02T13:29:10;28.75;;;14.80;;
21731;SDS011;11028;51.156;17.130;2024-03-02T13:36:30;25.83;;;15.73;;
21731;SDS011;11028;51.156;17.130;2024-03-02T13:43:48;28.30;;;16.40;;
21731;SDS011;11028;51.156;17.130;2024-03-02T13:51:09;26.52;;;14.40;;
21731;SDS011;11028;51.156;17.130;2024-03-02T13:58:29;25.25;;;13.98;;
21731;SDS011;11028;51.156;17.130;2024-03-02T14:05:48;28.15;;;14.43;;
21731;SDS011;11028;51.156;17.130;2024-03-02T14:13:07;27.70;;;15.95;;
21731;SDS011;11028;51.156;17.130;2024-03-02T14:20:27;28.38;;;15.75;;
21731;SDS011;11028;51.156;17.130;2024-03-02T14:27:45;27.90;;;15.95;;
21731;SDS011;11028;51.156;17.130;2024-03-02T14:35:23;23.70;;;15.23;;
21731;SDS011;11028;51.156;17.130;2024-03-02T14:42:43;27.42;;;16.60;;
21731;SDS011;11028;51.156;17.130;2024-03-02T14:50:04;26.33;;;15.85;;
21731;SDS011;11028;51.156;17.130;2024-03-02T14:57:23;30.92;;;16.60;;
21731;SDS011;11028;51.156;17.130;2024-03-02T15:04:43;34.83;;;18.48;;
21731;SDS011;11028;51.156;17.130;2024-03-02T15:12:05;33.22;;;18.10;;
21731;SDS011;11028;51.156;17.130;2024-03-02T15:19:26;29.83;;;17.52;;
21731;SDS011;11028;51.156;17.130;2024-03-02T15:26:46;31.55;;;18.33;;
21731;SDS011;11028;51.156;17.130;2024-03-02T15:34:05;29.70;;;17.55;;
21731;SDS011;11028;51.156;17.130;2024-03-02T15:41:24;32.38;;;18.40;;
21731;SDS011;11028;51.156;17.130;2024-03-02T15:48:45;34.10;;;17.90;;
21731;SDS011;11028;51.156;17.130;2024-03-02T15:56:05;34.30;;;18.20;;
21731;SDS011;11028;51.156;17.130;2024-03-02T16:03:25;39.38;;;18.80;;
21731;SDS011;11028;51.156;17.130;2024-03-02T16:10:45;44.53;;;21.52;;
21731;SDS011;11028;51.156;17.130;2024-03-02T16:18:04;34.97;;;20.13;;
21731;SDS011;11028;51.156;17.130;2024-03-02T16:25:23;39.85;;;20.50;;
21731;SDS011;11028;51.156;17.130;2024-03-02T16:32:43;45.55;;;20.40;;
21731;SDS011;11028;51.156;17.130;2024-03-02T16:40:02;39.92;;;20.90;;
21731;SDS011;11028;51.156;17.130;2024-03-02T16:47:22;41.95;;;21.65;;
21731;SDS011;11028;51.156;17.130;2024-03-02T16:54:47;35.08;;;20.30;;
21731;SDS011;11028;51.156;17.130;2024-03-02T17:02:06;41.50;;;20.70;;
21731;SDS011;11028;51.156;17.130;2024-03-02T17:09:24;43.65;;;21.13;;
21731;SDS011;11028;51.156;17.130;2024-03-02T17:16:44;48.35;;;24.02;;
21731;SDS011;11028;51.156;17.130;2024-03-02T17:24:02;43.35;;;23.98;;
21731;SDS011;11028;51.156;17.130;2024-03-02T17:31:21;51.20;;;26.38;;
21731;SDS011;11028;51.156;17.130;2024-03-02T17:38:41;47.40;;;23.88;;
21731;SDS011;11028;51.156;17.130;2024-03-02T17:45:59;48.22;;;25.48;;
21731;SDS011;11028;51.156;17.130;2024-03-02T17:53:18;41.67;;;23.92;;
21731;SDS011;11028;51.156;17.130;2024-03-02T18:00:38;48.03;;;25.25;;
21731;SDS011;11028;51.156;17.130;2024-03-02T18:07:57;47.22;;;24.83;;
21731;SDS011;11028;51.156;17.130;2024-03-02T18:15:16;54.72;;;27.30;;
21731;SDS011;11028;51.156;17.130;2024-03-02T18:22:36;48.00;;;25.10;;
21731;SDS011;11028;51.156;17.130;2024-03-02T18:29:54;42.80;;;24.23;;
21731;SDS011;11028;51.156;17.130;2024-03-02T18:37:13;36.58;;;21.42;;
21731;SDS011;11028;51.156;17.130;2024-03-02T18:44:33;36.45;;;19.85;;
21731;SDS011;11028;51.156;17.130;2024-03-02T18:51:51;32.92;;;19.00;;
21731;SDS011;11028;51.156;17.130;2024-03-02T18:59:10;36.22;;;19.42;;
21731;SDS011;11028;51.156;17.130;2024-03-02T19:06:30;33.60;;;17.20;;
21731;SDS011;11028;51.156;17.130;2024-03-02T19:13:48;29.77;;;17.00;;
21731;SDS011;11028;51.156;17.130;2024-03-02T19:21:08;29.50;;;15.30;;
21731;SDS011;11028;51.156;17.130;2024-03-02T19:28:28;27.15;;;14.80;;
21731;SDS011;11028;51.156;17.130;2024-03-02T19:35:47;28.45;;;14.13;;
21731;SDS011;11028;51.156;17.130;2024-03-02T19:43:05;29.02;;;14.15;;
21731;SDS011;11028;51.156;17.130;2024-03-02T19:50:25;19.88;;;11.85;;
21731;SDS011;11028;51.156;17.130;2024-03-02T19:57:44;19.85;;;11.57;;
21731;SDS011;11028;51.156;17.130;2024-03-02T20:05:02;16.98;;;10.63;;
21731;SDS011;11028;51.156;17.130;2024-03-02T20:12:22;20.55;;;10.20;;
21731;SDS011;11028;51.156;17.130;2024-03-02T20:19:41;18.17;;;10.27;;
21731;SDS011;11028;51.156;17.130;2024-03-02T20:26:59;15.55;;;9.60;;
21731;SDS011;11028;51.156;17.130;2024-03-02T20:34:22;20.00;;;10.57;;
21731;SDS011;11028;51.156;17.130;2024-03-02T20:41:42;16.67;;;10.75;;
21731;SDS011;11028;51.156;17.130;2024-03-02T20:49:01;22.75;;;11.32;;
21731;SDS011;11028;51.156;17.130;2024-03-02T20:56:21;20.52;;;12.27;;
21731;SDS011;11028;51.156;17.130;2024-03-02T21:03:39;18.00;;;11.18;;
21731;SDS011;11028;51.156;17.130;2024-03-02T21:10:58;20.85;;;11.52;;
21731;SDS011;11028;51.156;17.130;2024-03-02T21:18:20;20.45;;;11.88;;
21731;SDS011;11028;51.156;17.130;2024-03-02T21:25:38;21.40;;;11.93;;
21731;SDS011;11028;51.156;17.130;2024-03-02T21:32:57;21.45;;;11.52;;
21731;SDS011;11028;51.156;17.130;2024-03-02T21:40:16;20.83;;;12.43;;
21731;SDS011;11028;51.156;17.130;2024-03-02T21:47:36;21.83;;;12.57;;
21731;SDS011;11028;51.156;17.130;2024-03-02T21:54:54;22.83;;;12.27;;
21731;SDS011;11028;51.156;17.130;2024-03-02T22:02:14;22.02;;;12.95;;
21731;SDS011;11028;51.156;17.130;2024-03-02T22:09:32;20.48;;;12.23;;
21731;SDS011;11028;51.156;17.130;2024-03-02T22:16:50;23.48;;;13.00;;
21731;SDS011;11028;51.156;17.130;2024-03-02T22:24:13;24.55;;;13.25;;
21731;SDS011;11028;51.156;17.130;2024-03-02T22:31:31;24.37;;;13.90;;
21731;SDS011;11028;51.156;17.130;2024-03-02T22:38:50;25.27;;;14.88;;
21731;SDS011;11028;51.156;17.130;2024-03-02T22:46:10;23.73;;;13.88;;
21731;SDS011;11028;51.156;17.130;2024-03-02T22:53:29;30.05;;;15.57;;
21731;SDS011;11028;51.156;17.130;2024-03-02T23:00:49;25.48;;;15.02;;
21731;SDS011;11028;51.156;17.130;2024-03-02T23:08:16;28.42;;;16.52;;
21731;SDS011;11028;51.156;17.130;2024-03-02T23:25:09;34.00;;;18.13;;
21731;SDS011;11028;51.156;17.130;2024-03-02T23:32:27;34.33;;;18.42;;
21731;SDS011;11028;51.156;17.130;2024-03-02T23:39:46;33.72;;;19.30;;
21731;SDS011;11028;51.156;17.130;2024-03-02T23:47:36;34.50;;;20.52;;
21731;SDS011;11028;51.156;17.130;2024-03-02T23:54:54;39.15;;;19.67;;
